Latest Weather Observations for Windorah

IDQ60801

Issued at 9:52 am EST Tuesday 7 December 2021 (issued every 10 minutes, with the page automatically refreshed every 10 minutes)

About weather observations | Map of weather stations | Latest weather observations for QLD | Other Formats
Station Details ID: 038076 Name: WINDORAH AIRPORT Lat: -25.41 Lon: 142.66 Height: 132.16 m
Data from the previous 72 hours. | See also: Recent months at Windorah
Date/Time
EST
Temp
°C
App
Temp
°C
Dew
Point
°C
Rel
Hum
%
Delta-T
°C
Wind Press
QNH
hPa
Press
MSL
hPa
Rain since
9am
mm
Dir  Spd
km/h
Gust
km/h
Spd
kts
Gust
kts
07/09:30am 31.2 30.5 14.4 36 10.3 NNE 11 17 6 9 1011.4 1010.4 0.0
07/09:00am 30.2 29.2 15.5 41 9.1 NNE 15 20 8 11 1011.5 1010.5 0.0
07/08:30am 29.3 28.0 16.8 47 7.9 N 19 26 10 14 1011.3 1010.3 0.0
07/08:00am 28.9 28.1 17.1 49 7.5 N 17 24 9 13 1011.2 1010.2 0.0
07/07:30am 27.3 26.8 17.8 56 6.0 NNE 17 24 9 13 1011.0 1010.0 0.0
07/07:00am 26.8 27.4 17.6 57 5.8 NE 11 17 6 9 1010.7 1009.8 0.0
07/06:30am 26.0 26.0 17.1 58 5.6 ENE 13 15 7 8 1010.0 1009.1 0.0
07/06:00am 25.8 26.3 16.6 56 5.7 NE 9 13 5 7 1010.0 1009.1 0.0
07/05:30am 26.0 26.1 16.5 55 5.9 NE 11 15 6 8 1009.7 1008.8 0.0
07/05:00am 26.2 26.0 16.7 56 5.9 ENE 13 17 7 9 1009.4 1008.5 0.0
07/04:30am 26.5 26.4 17.0 56 5.9 ENE 13 19 7 10 1009.3 1008.4 0.0
07/04:00am 26.6 26.8 16.8 55 6.1 E 11 15 6 8 1009.3 1008.4 0.0
07/03:30am 26.6 27.6 16.8 55 6.1 ESE 7 9 4 5 1009.1 1008.2 0.0
07/03:00am 27.0 27.6 16.9 54 6.3 ESE 9 11 5 6 1009.0 1008.1 0.0
07/02:30am 26.9 27.6 17.1 55 6.2 SE 9 13 5 7 1009.0 1008.1 0.0
07/02:00am 26.4 26.2 14.8 49 7.0 SSE 9 11 5 6 1009.1 1008.2 0.0
07/01:30am 27.2 27.0 14.6 46 7.6 SSE 9 11 5 6 1009.2 1008.3 0.0
07/01:00am 27.4 26.6 13.0 41 8.5 S 9 13 5 7 1009.2 1008.3 0.0
07/12:30am 28.2 26.9 12.5 37 9.2 SSE 11 17 6 9 1009.4 1008.5 0.0
07/12:00am 28.7 26.5 10.8 33 10.3 SSE 13 19 7 10 1009.6 1008.7 0.0
 
Date/Time
EST
Temp
°C
App
Temp
°C
Dew
Point
°C
Rel
Hum
%
Delta-T
°C
Wind Press
QNH
hPa
Press
MSL
hPa
Rain since
9am
mm
Dir  Spd
km/h
Gust
km/h
Spd
kts
Gust
kts
06/11:30pm 29.0 26.5 9.7 30 10.9 S 13 19 7 10 1009.6 1008.7 0.0
06/11:00pm 28.7 26.0 8.9 29 11.0 S 13 17 7 9 1009.7 1008.8 0.0
06/10:30pm 29.5 27.2 9.1 28 11.4 S 11 13 6 7 1009.4 1008.5 0.0
06/10:00pm 29.8 27.4 8.8 27 11.7 S 11 13 6 7 1009.2 1008.3 0.0
06/09:30pm 30.3 28.3 8.7 26 12.0 SSW 9 13 5 7 1008.8 1007.9 0.0
06/09:00pm 31.1 28.4 7.5 23 13.0 S 11 15 6 8 1008.5 1007.6 0.0
06/08:30pm 31.7 28.5 6.7 21 13.6 SSW 13 17 7 9 1008.1 1007.1 0.0
06/08:00pm 33.1 30.7 7.1 20 14.4 WSW 9 13 5 7 1007.5 1006.5 0.0
06/07:30pm 34.1 31.7 7.2 19 14.9 WSW 9 11 5 6 1007.2 1006.2 0.0
06/07:00pm 35.1 31.0 6.4 17 15.8 WSW 17 20 9 11 1006.9 1005.9 0.0
06/06:30pm 35.9 32.0 7.0 17 16.1 WSW 17 20 9 11 1006.7 1005.7 0.0
06/06:00pm 36.3 31.7 6.5 16 16.6 W 20 33 11 18 1006.4 1005.4 0.0
06/05:30pm 36.3 31.9 6.5 16 16.5 WSW 19 28 10 15 1006.2 1005.2 0.0
06/05:00pm 36.8 32.1 5.9 15 17.1 WSW 20 30 11 16 1006.2 1005.2 0.0
06/04:30pm 37.3 31.7 5.3 14 17.5 WSW 24 41 13 22 1006.2 1005.2 0.0
06/04:00pm 37.1 32.8 5.2 14 17.4 WSW 17 28 9 15 1006.3 1005.3 0.0
06/03:30pm 36.7 32.3 4.9 14 17.2 WSW 17 24 9 13 1006.6 1005.6 0.0
06/03:00pm 37.4 32.6 4.4 13 17.9 SW 19 35 10 19 1006.9 1005.9 0.0
06/02:30pm 36.7 32.5 3.8 13 17.5 W 15 28 8 15 1007.2 1006.2 0.0
06/02:00pm 37.1 32.0 4.1 13 17.7 NW 20 30 11 16 1007.5 1006.5 0.0
06/01:30pm 36.2 32.7 5.5 15 16.7 NW 13 30 7 16 1007.9 1006.9 0.0
06/01:00pm 35.9 32.3 5.2 15 16.7 W 13 19 7 10 1008.3 1007.3 0.0
06/12:30pm 35.7 32.7 4.1 14 16.8 NW 9 17 5 9 1008.7 1007.8 0.0
06/12:00pm 35.1 31.6 3.6 14 16.6 NNW 11 22 6 12 1009.2 1008.3 0.0
06/11:30am 35.3 32.6 2.7 13 16.9 NNW 6 11 3 6 1009.5 1008.6 0.0
06/11:00am 34.7 31.7 2.3 13 16.7 WNW 7 15 4 8 1010.1 1009.2 0.0
06/10:30am 33.2 29.3 1.1 13 16.0 ESE 11 17 6 9 1010.0 1009.1 0.0
06/10:00am 33.2 28.3 2.1 14 15.8 E 17 24 9 13 1010.2 1009.3 0.0
06/09:30am 32.8 28.2 3.7 16 15.1 ESE 17 26 9 14 1010.1 1009.2 0.0
06/09:00am 31.6 26.6 3.6 17 14.5 SE 19 24 10 13 1010.3 1009.4 0.0
06/08:30am 30.7 25.7 3.7 18 13.9 SE 19 30 10 16 1010.0 1009.1 0.0
06/08:00am 30.0 24.9 3.1 18 13.6 SE 19 28 10 15 1010.0 1009.1 0.0
06/07:30am 28.9 23.3 1.4 17 13.4 SE 20 28 11 15 1009.6 1008.7 0.0
06/07:00am 26.8 22.2 1.3 19 12.3 SE 15 20 8 11 1009.6 1008.7 0.0
06/06:30am 25.4 21.7 2.2 22 11.2 SE 11 15 6 8 1009.7 1008.8 0.0
06/06:00am 24.4 20.6 1.9 23 10.8 S 11 13 6 7 1009.7 1008.8 0.0
06/05:30am 24.7 21.3 1.6 22 11.0 SSE 9 11 5 6 1009.4 1008.5 0.0
06/05:00am 24.8 20.9 1.0 21 11.2 S 11 15 6 8 1009.1 1008.2 0.0
06/04:30am 24.8 21.3 1.0 21 11.2 S 9 13 5 7 1009.3 1008.4 0.0
06/04:00am 24.7 19.5 0.3 20 11.4 SSW 17 22 9 12 1009.4 1008.5 0.0
06/03:30am 25.5 20.6 -0.5 18 12.0 SW 15 20 8 11 1009.3 1008.4 0.0
06/03:00am 25.6 21.6 0.3 19 11.9 SSW 11 11 6 6 1008.7 1007.8 0.0
06/02:30am 27.0 22.8 -0.9 16 12.9 SE 11 13 6 7 1008.5 1007.6 0.0
06/02:00am 27.0 23.2 -0.9 16 12.9 SSE 9 13 5 7 1009.4 1008.5 0.0
06/01:30am 27.7 23.2 -0.4 16 13.2 S 13 17 7 9 1009.6 1008.7 0.0
06/01:00am 28.3 23.0 -0.8 15 13.6 S 17 22 9 12 1009.8 1008.9 0.0
06/12:30am 28.6 22.9 -0.5 15 13.7 S 19 24 10 13 1010.4 1009.5 0.0
06/12:00am 29.3 22.8 0.0 15 14.0 S 24 32 13 17 1010.3 1009.4 0.0
 
Date/Time
EST
Temp
°C
App
Temp
°C
Dew
Point
°C
Rel
Hum
%
Delta-T
°C
Wind Press
QNH
hPa
Press
MSL
hPa
Rain since
9am
mm
Dir  Spd
km/h
Gust
km/h
Spd
kts
Gust
kts
05/11:30pm 29.5 23.7 0.2 15 14.1 S 20 30 11 16 1010.3 1009.4 0.0
05/11:00pm 29.5 23.1 1.1 16 13.9 S 24 33 13 18 1010.1 1009.2 0.0
05/10:30pm 29.6 22.5 1.1 16 13.9 S 28 35 15 19 1010.1 1009.2 0.0
05/10:00pm 29.9 23.5 3.0 18 13.6 S 26 37 14 20 1010.2 1009.3 0.0
05/09:30pm 30.5 25.3 3.5 18 13.8 S 20 28 11 15 1009.8 1008.9 0.0
05/09:00pm 31.2 25.7 4.1 18 14.1 S 22 30 12 16 1009.5 1008.6 0.0
05/08:30pm 31.6 27.1 4.4 18 14.2 S 17 24 9 13 1008.9 1008.0 0.0
05/08:00pm 32.3 27.4 4.2 17 14.7 S 19 26 10 14 1008.5 1007.6 0.0
05/07:30pm 33.3 27.3 3.2 15 15.6 S 24 39 13 21 1008.4 1007.5 0.0
05/07:00pm 34.2 28.3 3.9 15 16.0 S 24 35 13 19 1008.2 1007.2 0.0
05/06:30pm 35.4 30.8 3.9 14 16.7 SSE 17 26 9 14 1007.8 1006.8 0.0
05/06:00pm 35.4 30.5 3.9 14 16.7 SSE 19 28 10 15 1007.6 1006.6 0.0
05/05:30pm 35.7 30.8 4.1 14 16.8 S 19 26 10 14 1007.6 1006.6 0.0
05/05:00pm 35.8 30.5 5.1 15 16.6 S 22 28 12 15 1007.6 1006.6 0.0
05/04:30pm 36.0 30.6 4.3 14 17.0 S 22 28 12 15 1007.6 1006.6 0.0
05/04:00pm 36.1 31.3 4.4 14 17.0 SSE 19 28 10 15 1007.9 1006.9 0.0
05/03:30pm 36.4 32.5 3.6 13 17.4 SE 13 22 7 12 1008.0 1007.0 0.0
05/03:00pm 36.3 32.0 3.5 13 17.4 SE 15 26 8 14 1008.2 1007.2 0.0
05/02:30pm 37.1 33.0 4.1 13 17.7 SSE 15 26 8 14 1008.5 1007.6 0.0
05/02:00pm 36.3 32.2 4.6 14 17.1 SE 15 28 8 15 1008.9 1008.0 0.0
05/01:30pm 35.9 31.4 4.2 14 16.9 SE 17 26 9 14 1009.4 1008.5 0.0
05/01:00pm 35.8 32.1 4.2 14 16.9 ESE 13 26 7 14 1010.0 1009.1 0.0
05/12:30pm 35.1 29.9 3.6 14 16.6 ESE 20 28 11 15 1010.5 1009.6 0.0
05/12:00pm 34.6 30.9 4.2 15 16.1 SE 13 20 7 11 1011.1 1010.1 0.0
05/11:30am 34.1 30.8 4.7 16 15.7 S 11 19 6 10 1011.7 1010.7 0.0
05/11:00am 33.5 29.4 4.2 16 15.4 ESE 15 24 8 13 1011.9 1010.9 0.0
05/10:30am 33.7 28.8 5.3 17 15.2 ENE 20 28 11 15 1012.0 1011.0 0.0
05/10:00am 32.8 27.8 4.6 17 14.9 E 20 32 11 17 1011.8 1010.8 0.0
05/09:30am 32.4 26.9 4.2 17 14.8 E 22 32 12 17 1012.1 1011.1 0.0
05/09:00am 31.4 26.5 5.0 19 13.9 E 20 30 11 16 1012.2 1011.2 0.0
05/08:30am 30.9 24.9 5.3 20 13.5 E 26 37 14 20 1012.0 1011.0 0.0
05/08:00am 30.1 24.1 5.4 21 13.0 E 26 33 14 18 1012.3 1011.3 0.0
05/07:30am 28.9 22.9 5.1 22 12.4 ESE 26 37 14 20 1012.1 1011.1 0.0
05/07:00am 28.3 23.5 5.8 24 11.8 SE 20 28 11 15 1012.3 1011.3 0.0
05/06:30am 27.8 23.7 6.0 25 11.5 SE 17 22 9 12 1011.8 1010.8 0.0
05/06:00am 27.4 23.9 5.6 25 11.4 SE 13 19 7 10 1011.7 1010.7 0.0
05/05:30am 27.4 23.1 5.1 24 11.5 SE 17 26 9 14 1011.5 1010.5 0.0
05/05:00am 27.6 24.0 5.2 24 11.6 SE 13 19 7 10 1011.3 1010.3 0.0
05/04:30am 28.1 23.7 5.0 23 12.0 ESE 17 26 9 14 1011.1 1010.1 0.0
05/04:00am 28.6 23.8 4.8 22 12.3 SE 19 26 10 14 1010.9 1009.9 0.0
05/03:30am 28.9 24.4 4.4 21 12.6 SE 17 24 9 13 1010.3 1009.4 0.0
05/03:00am 29.3 24.8 4.0 20 13.0 SE 17 24 9 13 1010.3 1009.4 0.0
05/02:30am 29.4 24.3 4.1 20 13.0 SSE 20 28 11 15 1010.3 1009.4 0.0
05/02:00am 29.9 24.9 3.8 19 13.4 SSE 19 30 10 16 1010.3 1009.4 0.0
05/01:30am 28.0 24.7 6.2 25 11.5 SSE 13 15 7 8 1010.5 1009.6 0.0
05/01:00am 29.4 25.4 4.8 21 12.8 S 15 20 8 11 1010.9 1009.9 0.0
05/12:30am 29.5 26.0 5.6 22 12.6 S 13 17 7 9 1011.3 1010.3 0.0
05/12:00am 29.9 26.3 5.2 21 13.0 S 13 15 7 8 1011.5 1010.5 0.0
 
Date/Time
EST
Temp
°C
App
Temp
°C
Dew
Point
°C
Rel
Hum
%
Delta-T
°C
Wind Press
QNH
hPa
Press
MSL
hPa
Rain since
9am
mm
Dir  Spd
km/h
Gust
km/h
Spd
kts
Gust
kts
04/11:30pm 31.2 27.7 5.6 20 13.6 SSE 13 17 7 9 1011.5 1010.5 0.0
04/11:00pm 31.2 28.8 10.0 27 12.1 SSE 13 19 7 10 1011.6 1010.6 0.0
04/10:30pm 31.2 30.0 11.6 30 11.5 S 9 13 5 7 1011.6 1010.6 0.0
04/10:00pm 32.2 30.7 11.9 29 12.0 NE 11 13 6 7 1011.4 1010.4 0.0
04/09:30pm 32.9 32.2 11.4 27 12.7 N 6 9 3 5 1011.0 1010.0 0.0
04/09:00pm 33.9 32.8 9.9 23 13.9 SE 6 11 3 6 1010.5 1009.6 0.0
04/08:35pm 34.4 31.1 9.6 22 14.3 E 17 44 9 24 1010.5 1009.6 0.0
04/08:30pm 34.8 31.8 9.3 21 14.7 WSW 15 24 8 13 1010.4 1009.5 0.0
04/08:25pm 34.1 30.4 9.4 22 14.2 SSW 19 26 10 14 1011.0 1010.0 0.0
04/08:00pm 32.0 25.6 13.2 31 11.3 SSW 39 59 21 32 1010.6 1009.7 0.0
04/07:52pm 34.2 28.6 10.1 23 14.0 SW 30 54 16 29 1010.3 1009.4 0.0
04/07:48pm 34.5 30.1 10.4 23 14.1 W 24 39 13 21 1010.2 1009.3 0.0
04/07:30pm 35.9 34.3 8.7 19 15.6 NW 7 11 4 6 1009.5 1008.6 0.0
04/07:00pm 36.3 33.8 8.2 18 16.0 SE 11 19 6 10 1008.7 1007.8 0.0
04/06:30pm 37.6 34.5 5.6 14 17.6 SSE 11 17 6 9 1008.1 1007.1 0.0
04/06:18pm 37.6 30.5 5.6 14 17.6 SSE 32 56 17 30 1008.0 1007.0 0.0
04/06:08pm 38.1 31.9 6.0 14 17.8 SSE 28 59 15 32 1007.6 1006.6 0.0
04/06:00pm 38.8 34.9 5.4 13 18.5 SE 15 24 8 13 1007.7 1006.7 0.0
04/05:30pm 39.0 35.5 5.6 13 18.5 SE 13 20 7 11 1007.3 1006.3 0.0
04/05:00pm 39.4 34.7 5.9 13 18.7 SE 20 30 11 16 1007.2 1006.2 0.0
04/04:30pm 40.2 35.9 5.4 12 19.3 SSE 17 28 9 15 1007.2 1006.2 0.0
04/04:00pm 39.7 35.3 5.0 12 19.2 SSE 17 24 9 13 1007.4 1006.4 0.0
04/03:30pm 40.8 35.7 5.8 12 19.6 S 22 35 12 19 1007.8 1006.8 0.0
04/03:00pm 40.9 35.8 5.9 12 19.7 SSE 22 43 12 23 1008.1 1007.1 0.0
04/02:30pm 40.1 34.9 5.3 12 19.3 S 22 35 12 19 1008.8 1007.9 0.0
04/02:00pm 40.3 36.3 6.6 13 19.1 S 17 32 9 17 1009.2 1008.3 0.0
04/01:30pm 40.9 37.5 5.9 12 19.7 SSE 13 30 7 16 1009.6 1008.7 0.0
04/01:00pm 39.3 36.5 6.9 14 18.3 SSW 11 19 6 10 1010.2 1009.3 0.0
04/12:30pm 39.0 37.1 7.7 15 17.9 E 7 20 4 11 1010.7 1009.8 0.0
04/12:00pm 38.5 37.2 9.1 17 17.1 N 6 13 3 7 1011.2 1010.2 0.0
04/11:30am 37.9 35.3 9.5 18 16.6 ESE 13 19 7 10 1011.9 1010.9 0.0
04/11:00am 37.8 36.4 11.0 20 16.0 E 9 15 5 8 1012.2 1011.2 0.0
04/10:30am 36.6 34.0 10.7 21 15.3 NE 15 20 8 11 1012.6 1011.6 0.0
04/10:00am 36.2 33.5 11.8 23 14.6 ENE 17 24 9 13 1012.8 1011.8 0.0

Other formats

Comma delimited format used in spreadsheet applications
http://www.bom.gov.au/fwo/IDQ60801/IDQ60801.94489.axf

JavaScript Object Notation format (JSON) in row-major order
http://www.bom.gov.au/fwo/IDQ60801/IDQ60801.94489.json

Data quality

Most of these data are generated automatically and are frequently updated. Quality checks on data are not normally performed. It is possible for incorrect values to appear. Refer to information at About Latest Weather Observations and please check the disclaimer before using these data.